createdAt,value
2022-10-01T00:00:09.309Z,48.60
2022-10-01T00:01:53.072Z,48.90
2022-10-01T00:02:44.744Z,48.90
2022-10-01T00:03:36.439Z,48.80
2022-10-01T00:04:28.249Z,48.90
2022-10-01T00:05:19.990Z,49.00
2022-10-01T00:06:11.795Z,49.00
2022-10-01T00:07:03.541Z,49.10
2022-10-01T00:07:55.286Z,48.90
2022-10-01T00:08:47.121Z,49.00
2022-10-01T00:09:38.933Z,49.00
2022-10-01T00:10:30.701Z,49.10
2022-10-01T00:11:22.490Z,52.30
2022-10-01T00:12:14.249Z,51.80
2022-10-01T00:13:06.026Z,51.10
2022-10-01T00:13:57.771Z,50.20
2022-10-01T00:14:49.550Z,50.30
2022-10-01T00:15:41.338Z,50.00
2022-10-01T00:16:33.139Z,49.10
2022-10-01T00:17:24.854Z,50.00
2022-10-01T00:18:16.646Z,48.90
2022-10-01T00:19:08.407Z,48.40
2022-10-01T00:20:00.189Z,48.90
2022-10-01T00:20:51.938Z,48.40
2022-10-01T00:21:43.717Z,48.10
2022-10-01T00:22:35.362Z,48.20
2022-10-01T00:23:27.223Z,47.90
2022-10-01T00:24:18.917Z,48.20
2022-10-01T00:25:10.727Z,49.80
2022-10-01T00:26:02.444Z,48.90
2022-10-01T00:26:54.227Z,48.60
2022-10-01T00:27:45.982Z,50.50
2022-10-01T00:28:37.715Z,50.00
2022-10-01T00:29:29.451Z,50.30
2022-10-01T00:30:21.203Z,48.90
2022-10-01T00:31:13.113Z,49.00
2022-10-01T00:32:04.709Z,48.90
2022-10-01T00:32:56.411Z,48.80
2022-10-01T00:33:48.178Z,50.00
2022-10-01T00:34:39.888Z,49.80
2022-10-01T00:35:31.649Z,50.50
2022-10-01T00:36:23.368Z,50.70
2022-10-01T00:37:15.061Z,49.80
2022-10-01T00:38:06.852Z,49.30
2022-10-01T00:38:58.585Z,50.10
2022-10-01T00:39:50.302Z,50.60
2022-10-01T00:40:42.065Z,52.00
2022-10-01T00:41:34.168Z,51.70
2022-10-01T00:42:25.469Z,50.70
2022-10-01T00:43:17.256Z,50.30
2022-10-01T00:44:09.031Z,51.10
2022-10-01T00:45:00.764Z,50.30
2022-10-01T00:45:52.534Z,50.30
2022-10-01T00:46:44.219Z,51.40
2022-10-01T00:47:35.982Z,51.20
2022-10-01T00:48:27.691Z,50.60
2022-10-01T00:49:19.369Z,50.70
2022-10-01T00:50:11.174Z,50.60
2022-10-01T00:51:02.927Z,51.80
2022-10-01T00:51:54.650Z,51.50
2022-10-01T00:52:46.392Z,50.10
2022-10-01T00:53:38.135Z,50.20
2022-10-01T00:54:29.867Z,51.60
2022-10-01T00:55:21.601Z,51.10
2022-10-01T00:56:13.339Z,49.70
2022-10-01T00:57:05.057Z,50.50
2022-10-01T00:57:56.811Z,50.80
2022-10-01T00:58:48.544Z,51.50
2022-10-01T00:59:40.276Z,51.00
2022-10-01T01:00:32.000Z,51.30
2022-10-01T01:01:23.775Z,50.20
2022-10-01T01:02:15.445Z,50.20
2022-10-01T01:03:07.221Z,50.50
2022-10-01T01:03:58.910Z,50.60
2022-10-01T01:04:50.674Z,51.00
2022-10-01T01:05:42.380Z,51.20
2022-10-01T01:06:34.126Z,51.30
2022-10-01T01:07:25.865Z,51.40
2022-10-01T01:08:17.593Z,51.60
2022-10-01T01:09:09.463Z,52.00
2022-10-01T01:10:01.189Z,52.40
2022-10-01T01:10:52.838Z,52.50
2022-10-01T01:11:44.585Z,53.20
2022-10-01T01:12:36.332Z,53.30
2022-10-01T01:13:28.280Z,53.40
2022-10-01T01:14:19.818Z,53.50
2022-10-01T01:15:11.599Z,53.70
2022-10-01T01:16:03.349Z,53.70
2022-10-01T01:16:55.079Z,53.80
2022-10-01T01:17:46.852Z,53.90
2022-10-01T01:18:38.639Z,53.90
2022-10-01T01:19:30.389Z,54.00
2022-10-01T01:20:22.164Z,54.10
2022-10-01T01:21:13.925Z,54.20
2022-10-01T01:22:05.626Z,54.30
2022-10-01T01:22:57.460Z,54.00
2022-10-01T01:23:49.252Z,54.40
2022-10-01T01:24:41.019Z,54.30
2022-10-01T01:25:32.790Z,54.30
2022-10-01T01:26:24.547Z,54.40
2022-10-01T01:27:16.340Z,54.20
2022-10-01T01:28:08.135Z,54.10
2022-10-01T01:28:59.900Z,54.20
2022-10-01T01:29:51.654Z,54.20
2022-10-01T01:30:43.534Z,54.30
2022-10-01T01:31:35.442Z,54.40
2022-10-01T01:32:26.971Z,54.40
2022-10-01T01:33:18.748Z,54.20
2022-10-01T01:34:10.533Z,54.20
2022-10-01T01:35:02.223Z,54.20
2022-10-01T01:35:54.083Z,54.30
2022-10-01T01:36:45.814Z,54.20
2022-10-01T01:37:37.650Z,54.30
2022-10-01T01:38:29.407Z,54.30
2022-10-01T01:39:21.206Z,54.10
2022-10-01T01:40:12.950Z,54.10
2022-10-01T01:41:04.765Z,54.20
2022-10-01T01:41:56.510Z,54.20
2022-10-01T01:42:48.314Z,54.30
2022-10-01T01:43:40.070Z,54.30
2022-10-01T01:44:31.867Z,54.40
2022-10-01T01:45:23.624Z,54.40
2022-10-01T01:46:15.397Z,54.30
2022-10-01T01:47:07.189Z,54.30
2022-10-01T01:47:59.011Z,54.40
2022-10-01T01:48:50.758Z,54.50
2022-10-01T01:49:42.542Z,55.00
2022-10-01T01:50:34.313Z,55.00
2022-10-01T01:51:26.111Z,52.90
2022-10-01T01:52:17.889Z,53.40
2022-10-01T01:53:09.654Z,53.50
2022-10-01T01:54:01.424Z,53.40
2022-10-01T01:54:53.222Z,52.90
2022-10-01T01:55:44.992Z,52.80
2022-10-01T01:56:36.775Z,52.60
2022-10-01T01:57:28.525Z,52.70
2022-10-01T01:58:20.328Z,53.10
2022-10-01T01:59:12.071Z,54.00
2022-10-01T02:00:03.861Z,52.90
2022-10-01T02:00:55.584Z,53.30
2022-10-01T02:01:47.487Z,53.00
2022-10-01T02:02:39.254Z,52.90
2022-10-01T02:03:30.932Z,52.90
2022-10-01T02:04:22.692Z,52.90
2022-10-01T02:05:14.506Z,53.00
2022-10-01T02:06:06.216Z,53.10
2022-10-01T02:06:57.997Z,53.20
2022-10-01T02:07:49.759Z,53.30
2022-10-01T02:08:41.521Z,53.40
2022-10-01T02:09:33.295Z,53.40
2022-10-01T02:10:25.054Z,54.30
2022-10-01T02:11:16.805Z,54.30
2022-10-01T02:12:08.570Z,54.30
2022-10-01T02:13:00.324Z,54.00
2022-10-01T02:13:52.099Z,53.70
2022-10-01T02:14:43.862Z,53.70
2022-10-01T02:15:35.596Z,53.70
2022-10-01T02:16:27.416Z,53.60
2022-10-01T02:17:19.155Z,53.60
2022-10-01T02:18:10.894Z,53.60
2022-10-01T02:19:02.697Z,53.70
2022-10-01T02:19:54.426Z,53.90
2022-10-01T02:20:46.202Z,53.90
2022-10-01T02:21:37.952Z,53.90
2022-10-01T02:22:29.717Z,54.40
2022-10-01T02:23:21.461Z,54.70
2022-10-01T02:24:13.239Z,55.10
2022-10-01T02:25:04.982Z,54.40
2022-10-01T02:25:56.764Z,54.30
2022-10-01T02:26:48.497Z,54.20
2022-10-01T02:27:40.281Z,54.30
2022-10-01T02:28:32.018Z,54.20
2022-10-01T02:29:23.804Z,54.30
2022-10-01T02:30:15.470Z,54.40
2022-10-01T02:31:07.359Z,54.20
2022-10-01T02:31:59.061Z,54.40
2022-10-01T02:32:50.831Z,55.30
2022-10-01T02:33:42.580Z,55.00
2022-10-01T02:34:34.336Z,54.60
2022-10-01T02:35:26.090Z,54.60
2022-10-01T02:36:17.880Z,55.20
2022-10-01T02:37:09.604Z,55.00
2022-10-01T02:38:01.368Z,54.80
2022-10-01T02:38:53.120Z,54.60
2022-10-01T02:39:44.882Z,54.50
2022-10-01T02:40:36.639Z,54.50
2022-10-01T02:41:28.408Z,54.70
2022-10-01T02:42:20.137Z,54.70
2022-10-01T02:43:11.903Z,54.40
2022-10-01T02:44:03.663Z,54.40
2022-10-01T02:44:55.327Z,54.60
2022-10-01T02:45:47.243Z,54.70
2022-10-01T02:46:38.963Z,54.70
2022-10-01T02:47:30.637Z,54.80
2022-10-01T02:48:22.462Z,55.20
2022-10-01T02:49:14.168Z,55.20
2022-10-01T02:50:05.904Z,55.10
2022-10-01T02:50:57.742Z,55.00
2022-10-01T02:51:49.467Z,55.00
2022-10-01T02:52:41.194Z,55.00
2022-10-01T02:53:32.966Z,55.00
2022-10-01T02:54:24.686Z,55.10
2022-10-01T02:55:16.447Z,55.10
2022-10-01T02:56:08.214Z,55.10
2022-10-01T02:56:59.962Z,55.20
2022-10-01T02:57:51.681Z,55.20
2022-10-01T02:58:43.448Z,55.10
2022-10-01T02:59:35.182Z,55.20
2022-10-01T03:00:26.965Z,55.40
2022-10-01T03:01:18.698Z,55.30
2022-10-01T03:02:10.574Z,55.40
2022-10-01T03:03:02.173Z,55.40
2022-10-01T03:03:53.913Z,56.00
2022-10-01T03:04:45.583Z,55.70
2022-10-01T03:05:37.415Z,55.70
2022-10-01T03:06:29.160Z,55.70
2022-10-01T03:07:20.892Z,55.60
2022-10-01T03:08:12.633Z,55.50
2022-10-01T03:09:04.387Z,55.60
2022-10-01T03:09:56.054Z,55.60
2022-10-01T03:10:47.896Z,55.50
2022-10-01T03:11:39.611Z,55.60
2022-10-01T03:12:31.369Z,55.60
2022-10-01T03:13:23.100Z,55.70
2022-10-01T03:14:14.855Z,55.70
2022-10-01T03:15:06.568Z,55.70
2022-10-01T03:15:58.415Z,55.70
2022-10-01T03:16:50.055Z,55.70
2022-10-01T03:17:41.819Z,55.80
2022-10-01T03:18:33.522Z,56.00
2022-10-01T03:19:25.291Z,56.30
2022-10-01T03:20:16.983Z,56.30
2022-10-01T03:21:08.766Z,56.00
2022-10-01T03:22:00.491Z,55.90
2022-10-01T03:22:52.252Z,56.00
2022-10-01T03:23:43.973Z,56.00
2022-10-01T03:24:35.698Z,55.90
2022-10-01T03:25:27.479Z,56.80
2022-10-01T03:26:19.241Z,56.30
2022-10-01T03:27:10.944Z,56.10
2022-10-01T03:28:02.786Z,56.00
2022-10-01T03:28:54.444Z,56.00
2022-10-01T03:29:46.202Z,56.20
2022-10-01T03:30:37.943Z,56.50
2022-10-01T03:31:29.747Z,56.80
2022-10-01T03:32:21.446Z,56.10
2022-10-01T03:33:13.166Z,56.30
2022-10-01T03:34:04.912Z,56.60
2022-10-01T03:34:56.670Z,55.70
2022-10-01T03:35:48.404Z,55.70
2022-10-01T03:36:40.149Z,56.70
2022-10-01T03:37:31.880Z,56.60
2022-10-01T03:38:23.632Z,56.00
2022-10-01T03:39:15.336Z,55.90
2022-10-01T03:40:07.127Z,55.90
2022-10-01T03:40:58.844Z,56.00
2022-10-01T03:41:50.618Z,56.00
2022-10-01T03:42:42.332Z,55.90
2022-10-01T03:43:34.096Z,56.00
2022-10-01T03:44:25.745Z,57.10
2022-10-01T03:45:17.572Z,57.20
2022-10-01T03:46:09.365Z,56.40
2022-10-01T03:47:00.968Z,56.10
2022-10-01T03:47:52.793Z,56.10
2022-10-01T03:48:44.530Z,56.20
2022-10-01T03:49:36.280Z,56.30
2022-10-01T03:50:28.007Z,57.10
2022-10-01T03:51:20.006Z,56.90
2022-10-01T03:52:11.489Z,57.10
2022-10-01T03:53:03.239Z,56.70
2022-10-01T03:53:54.978Z,56.80
2022-10-01T03:54:46.706Z,56.50
2022-10-01T03:55:38.467Z,56.30
2022-10-01T03:56:30.187Z,56.30
2022-10-01T03:57:21.954Z,56.60
2022-10-01T03:58:13.673Z,56.60
2022-10-01T03:59:05.340Z,57.10
2022-10-01T03:59:57.156Z,57.70
2022-10-01T04:00:48.923Z,56.70
2022-10-01T04:01:40.694Z,56.60
2022-10-01T04:02:32.582Z,56.30
2022-10-01T04:03:24.142Z,56.60
2022-10-01T04:04:15.821Z,57.30
2022-10-01T04:05:07.624Z,57.50
2022-10-01T04:05:59.419Z,57.70
2022-10-01T04:06:51.164Z,57.00
2022-10-01T04:07:42.921Z,56.40
2022-10-01T04:08:34.623Z,56.40
2022-10-01T04:09:26.403Z,56.30
2022-10-01T04:10:18.117Z,56.50
2022-10-01T04:11:09.886Z,57.70
2022-10-01T04:12:01.620Z,57.20
2022-10-01T04:12:53.366Z,56.70
2022-10-01T04:13:45.095Z,56.40
2022-10-01T04:14:36.861Z,56.40
2022-10-01T04:15:28.606Z,56.30
2022-10-01T04:16:20.471Z,56.30
2022-10-01T04:17:12.099Z,56.90
2022-10-01T04:18:03.842Z,57.10
2022-10-01T04:18:55.507Z,56.40
2022-10-01T04:19:47.326Z,56.10
2022-10-01T04:20:39.070Z,56.20
2022-10-01T04:21:31.035Z,56.10
2022-10-01T04:22:22.577Z,56.30
2022-10-01T04:23:14.318Z,57.30
2022-10-01T04:24:05.978Z,57.70
2022-10-01T04:24:57.819Z,56.80
2022-10-01T04:25:49.549Z,57.20
2022-10-01T04:26:41.303Z,57.50
2022-10-01T04:27:33.066Z,57.40
2022-10-01T04:28:24.880Z,57.10
2022-10-01T04:29:16.526Z,57.70
2022-10-01T04:30:08.285Z,57.50
2022-10-01T04:31:00.008Z,57.10
2022-10-01T04:31:51.791Z,57.10
2022-10-01T04:32:43.496Z,57.40
2022-10-01T04:33:35.285Z,57.00
2022-10-01T04:34:26.986Z,57.10
2022-10-01T04:35:18.736Z,57.40
2022-10-01T04:36:10.461Z,57.30
2022-10-01T04:37:02.229Z,57.40
2022-10-01T04:37:53.952Z,57.20
2022-10-01T04:38:45.648Z,57.10
2022-10-01T04:39:37.461Z,57.10
2022-10-01T04:40:29.207Z,57.50
2022-10-01T04:41:20.923Z,57.50
2022-10-01T04:42:12.692Z,57.60
2022-10-01T04:43:04.416Z,57.30
2022-10-01T04:43:56.063Z,56.90
2022-10-01T04:44:47.896Z,56.90
2022-10-01T04:45:39.657Z,57.60
2022-10-01T04:46:31.425Z,57.40
2022-10-01T04:47:23.134Z,57.50
2022-10-01T04:48:14.861Z,57.10
2022-10-01T04:49:06.621Z,57.10
2022-10-01T04:49:58.344Z,57.50
2022-10-01T04:50:50.110Z,57.40
2022-10-01T04:51:41.832Z,56.90
2022-10-01T04:52:33.593Z,57.60
2022-10-01T04:53:25.321Z,57.70
2022-10-01T04:54:17.092Z,57.80
2022-10-01T04:55:08.815Z,57.60
2022-10-01T04:56:00.556Z,57.80
2022-10-01T04:56:52.276Z,57.50
2022-10-01T04:57:44.037Z,57.40
2022-10-01T04:58:35.691Z,57.80
2022-10-01T04:59:27.517Z,57.20
2022-10-01T05:00:19.259Z,57.30
2022-10-01T05:01:11.041Z,58.00
2022-10-01T05:02:02.799Z,58.30
2022-10-01T05:02:54.482Z,57.60
2022-10-01T05:03:46.123Z,57.50
2022-10-01T05:04:37.972Z,57.40
2022-10-01T05:05:29.697Z,57.30
2022-10-01T05:06:21.531Z,57.30
2022-10-01T05:07:13.184Z,57.20
2022-10-01T05:08:04.929Z,57.20
2022-10-01T05:08:56.679Z,57.20
2022-10-01T05:09:48.402Z,57.50
2022-10-01T05:10:40.153Z,57.50
2022-10-01T05:11:32.437Z,58.30
2022-10-01T05:12:24.678Z,58.20
2022-10-01T05:13:15.363Z,57.90
2022-10-01T05:14:07.095Z,57.80
2022-10-01T05:14:58.853Z,58.30
2022-10-01T05:15:50.597Z,58.00
2022-10-01T05:16:42.394Z,57.80
2022-10-01T05:17:34.041Z,57.80
2022-10-01T05:18:25.770Z,57.80
2022-10-01T05:19:17.530Z,57.70
2022-10-01T05:20:09.290Z,57.90
2022-10-01T05:21:00.913Z,58.00
2022-10-01T05:21:52.759Z,58.40
2022-10-01T05:22:44.494Z,58.10
2022-10-01T05:23:36.256Z,58.40
2022-10-01T05:24:27.983Z,58.40
2022-10-01T05:25:19.739Z,58.30
2022-10-01T05:26:11.458Z,58.70
2022-10-01T05:27:03.233Z,58.10
2022-10-01T05:27:55.003Z,58.20
2022-10-01T05:28:46.719Z,58.30
2022-10-01T05:29:38.448Z,58.10
2022-10-01T05:30:30.215Z,58.10
2022-10-01T05:31:21.985Z,58.10
2022-10-01T05:32:13.682Z,58.30
2022-10-01T05:33:05.437Z,58.30
2022-10-01T05:33:57.185Z,58.50
2022-10-01T05:34:53.483Z,58.60
2022-10-01T05:35:40.670Z,58.20
2022-10-01T05:36:32.400Z,58.30
2022-10-01T05:37:24.153Z,58.20
2022-10-01T05:38:15.802Z,57.90
2022-10-01T05:39:07.637Z,57.80
2022-10-01T05:39:59.369Z,57.90
2022-10-01T05:40:51.128Z,58.10
2022-10-01T05:41:42.850Z,58.20
2022-10-01T05:42:34.614Z,58.30
2022-10-01T05:43:26.343Z,58.30
2022-10-01T05:44:18.117Z,58.50
2022-10-01T05:45:09.832Z,58.20
2022-10-01T05:46:01.673Z,58.30
2022-10-01T05:46:53.338Z,58.60
2022-10-01T05:47:45.088Z,58.50
2022-10-01T05:48:37.016Z,58.50
2022-10-01T05:49:28.572Z,58.20
2022-10-01T05:50:20.309Z,58.00
2022-10-01T05:51:12.073Z,58.00
2022-10-01T05:52:03.790Z,58.20
2022-10-01T05:52:55.539Z,58.70
2022-10-01T05:53:50.346Z,58.50
2022-10-01T05:54:39.060Z,58.10
2022-10-01T05:55:30.783Z,58.60
2022-10-01T05:56:22.565Z,58.30
2022-10-01T05:57:14.261Z,58.60
2022-10-01T05:58:05.980Z,58.60
2022-10-01T05:58:57.746Z,58.60
2022-10-01T05:59:49.527Z,59.10
2022-10-01T06:00:41.258Z,59.30
2022-10-01T06:01:33.302Z,59.40
2022-10-01T06:02:24.926Z,59.40
2022-10-01T06:03:16.475Z,59.70
2022-10-01T06:04:08.355Z,59.60
2022-10-01T06:05:00.079Z,59.70
2022-10-01T06:05:51.784Z,59.70
2022-10-01T06:06:43.547Z,59.80
2022-10-01T06:07:35.301Z,59.80
2022-10-01T06:08:27.059Z,59.70
2022-10-01T06:09:18.804Z,59.90
2022-10-01T06:10:10.581Z,59.60
2022-10-01T06:11:02.330Z,59.60
2022-10-01T06:11:54.117Z,59.50
2022-10-01T06:12:45.821Z,59.70
2022-10-01T06:13:37.632Z,59.60
2022-10-01T06:14:29.382Z,59.50
2022-10-01T06:15:21.156Z,59.60
2022-10-01T06:16:12.944Z,59.70
2022-10-01T06:17:04.689Z,59.40
2022-10-01T06:17:56.424Z,59.40
2022-10-01T06:18:48.245Z,59.20
2022-10-01T06:19:39.999Z,59.20
2022-10-01T06:20:31.745Z,59.40
2022-10-01T06:21:23.507Z,59.20
2022-10-01T06:22:15.278Z,59.40
2022-10-01T06:23:06.957Z,59.50
2022-10-01T06:23:58.808Z,59.30
2022-10-01T06:24:53.737Z,59.20
2022-10-01T06:25:42.380Z,59.30
2022-10-01T06:26:34.122Z,59.20
2022-10-01T06:27:25.834Z,59.20
2022-10-01T06:28:17.719Z,59.20
2022-10-01T06:29:09.428Z,59.40
2022-10-01T06:30:01.085Z,59.30
2022-10-01T06:30:52.979Z,59.30
2022-10-01T06:31:44.740Z,59.00
2022-10-01T06:32:36.499Z,59.40
2022-10-01T06:33:28.248Z,59.20
2022-10-01T06:34:20.055Z,58.80
2022-10-01T06:35:11.804Z,58.90
2022-10-01T06:36:03.571Z,59.00
2022-10-01T06:36:55.335Z,59.10
2022-10-01T06:37:47.293Z,59.10
2022-10-01T06:38:38.876Z,59.10
2022-10-01T06:39:30.651Z,59.10
2022-10-01T06:40:22.417Z,59.30
2022-10-01T06:41:14.180Z,59.00
2022-10-01T06:42:05.860Z,59.00
2022-10-01T06:42:57.730Z,59.10
2022-10-01T06:43:49.475Z,59.10
2022-10-01T06:44:41.266Z,59.00
2022-10-01T06:45:33.035Z,59.10
2022-10-01T06:46:24.807Z,59.00
2022-10-01T06:47:16.562Z,59.00
2022-10-01T06:48:08.352Z,59.10
2022-10-01T06:49:00.121Z,59.20
2022-10-01T06:49:51.886Z,59.20
2022-10-01T06:50:43.654Z,59.20
2022-10-01T06:51:35.702Z,59.20
2022-10-01T06:52:27.195Z,59.20
2022-10-01T06:53:18.952Z,59.10
2022-10-01T06:54:10.740Z,59.20
2022-10-01T06:55:02.439Z,59.20
2022-10-01T06:55:54.272Z,59.00
2022-10-01T06:56:45.950Z,59.20
2022-10-01T06:57:37.814Z,59.20
2022-10-01T06:58:29.613Z,59.10
2022-10-01T06:59:21.357Z,58.90
2022-10-01T07:00:13.142Z,59.00
2022-10-01T07:01:04.953Z,59.10
2022-10-01T07:01:56.740Z,59.20
2022-10-01T07:02:48.546Z,59.20
2022-10-01T07:03:40.233Z,59.10
2022-10-01T07:04:32.007Z,59.10
2022-10-01T07:05:23.768Z,59.20
2022-10-01T07:06:15.542Z,59.20
2022-10-01T07:07:07.317Z,59.20
2022-10-01T07:07:59.088Z,59.10
2022-10-01T07:08:50.863Z,59.10
2022-10-01T07:09:42.618Z,59.30
2022-10-01T07:10:34.415Z,59.20
2022-10-01T07:11:26.090Z,59.10
2022-10-01T07:12:17.952Z,59.10
2022-10-01T07:13:09.741Z,59.10
2022-10-01T07:14:01.423Z,59.10
2022-10-01T07:14:53.243Z,58.90
2022-10-01T07:15:45.051Z,59.20
2022-10-01T07:16:36.900Z,58.90
2022-10-01T07:17:28.586Z,59.10
2022-10-01T07:18:20.341Z,59.10
2022-10-01T07:19:12.122Z,59.10
2022-10-01T07:20:03.831Z,59.20
2022-10-01T07:20:55.655Z,59.20
2022-10-01T07:21:47.417Z,59.40
2022-10-01T07:22:39.164Z,59.30
2022-10-01T07:23:30.976Z,59.30
2022-10-01T07:24:22.757Z,59.00
2022-10-01T07:25:14.513Z,59.00
2022-10-01T07:26:06.277Z,59.20
2022-10-01T07:26:58.066Z,59.30
2022-10-01T07:27:49.857Z,59.40
2022-10-01T07:28:41.608Z,59.20
2022-10-01T07:29:33.402Z,59.40
2022-10-01T07:30:25.151Z,59.30
2022-10-01T07:31:16.983Z,59.40
2022-10-01T07:32:08.858Z,59.40
2022-10-01T07:33:00.498Z,59.30
2022-10-01T07:33:52.255Z,59.40
2022-10-01T07:34:44.044Z,59.20
2022-10-01T07:35:35.703Z,59.30
2022-10-01T07:36:27.593Z,59.20
2022-10-01T07:37:19.356Z,59.30
2022-10-01T07:38:11.133Z,59.40
2022-10-01T07:39:02.883Z,59.30
2022-10-01T07:39:54.674Z,59.40
2022-10-01T07:40:46.390Z,59.50
2022-10-01T07:41:38.224Z,59.30
2022-10-01T07:42:29.988Z,59.20
2022-10-01T07:43:21.767Z,59.50
2022-10-01T07:44:13.545Z,59.30
2022-10-01T07:45:05.316Z,59.50
2022-10-01T07:45:57.174Z,59.50
2022-10-01T07:46:48.862Z,59.30
2022-10-01T07:47:40.638Z,59.50
2022-10-01T07:48:32.424Z,59.30
2022-10-01T07:49:24.184Z,59.50
2022-10-01T07:50:15.920Z,59.50
2022-10-01T07:51:07.732Z,59.10
2022-10-01T07:51:59.567Z,59.20
2022-10-01T07:52:51.288Z,59.40
2022-10-01T07:53:43.082Z,59.30
2022-10-01T07:54:34.829Z,59.50
2022-10-01T07:55:26.627Z,59.50
2022-10-01T07:56:18.388Z,59.20
2022-10-01T07:57:10.167Z,59.00
2022-10-01T07:58:01.970Z,59.20
2022-10-01T07:58:53.737Z,59.30
2022-10-01T07:59:45.507Z,59.20
2022-10-01T08:00:37.276Z,59.20
2022-10-01T08:01:29.131Z,59.20
2022-10-01T08:02:20.895Z,59.10
2022-10-01T08:03:12.639Z,59.30
2022-10-01T08:04:04.376Z,59.20
2022-10-01T08:04:56.075Z,59.20
2022-10-01T08:05:47.940Z,59.30
2022-10-01T08:06:39.701Z,59.40
2022-10-01T08:07:31.482Z,59.30
2022-10-01T08:08:23.291Z,59.40
2022-10-01T08:09:15.043Z,59.50
2022-10-01T08:10:06.741Z,59.50
2022-10-01T08:10:58.619Z,59.50
2022-10-01T08:11:50.365Z,59.30
2022-10-01T08:12:42.157Z,59.20
2022-10-01T08:13:33.931Z,59.30
2022-10-01T08:14:25.713Z,59.40
2022-10-01T08:15:17.459Z,59.40
2022-10-01T08:16:09.295Z,59.50
2022-10-01T08:17:01.175Z,59.50
2022-10-01T08:17:52.823Z,59.50
2022-10-01T08:18:44.576Z,59.50
2022-10-01T08:19:36.272Z,59.30
2022-10-01T08:20:28.133Z,59.30
2022-10-01T08:21:19.919Z,59.20
2022-10-01T08:22:11.695Z,59.30
2022-10-01T08:23:03.470Z,59.30
2022-10-01T08:23:55.243Z,59.40
2022-10-01T08:24:47.039Z,59.40
2022-10-01T08:25:38.779Z,59.50
2022-10-01T08:26:30.569Z,59.30
2022-10-01T08:27:22.332Z,59.50
2022-10-01T08:28:14.197Z,59.40
2022-10-01T08:29:05.831Z,59.40
2022-10-01T08:29:57.679Z,59.30
2022-10-01T08:30:49.454Z,59.60
2022-10-01T08:31:41.265Z,59.50
2022-10-01T08:32:33.013Z,59.50
2022-10-01T08:33:24.786Z,59.60
2022-10-01T08:34:16.541Z,59.70
2022-10-01T08:35:08.340Z,59.40
2022-10-01T08:36:00.123Z,59.50
2022-10-01T08:36:51.889Z,59.50
2022-10-01T08:37:43.668Z,59.70
2022-10-01T08:38:35.450Z,59.70
2022-10-01T08:39:27.205Z,59.60
2022-10-01T08:40:19.016Z,59.60
2022-10-01T08:41:10.757Z,59.70
2022-10-01T08:42:02.562Z,59.80
2022-10-01T08:42:54.310Z,59.70
2022-10-01T08:43:46.019Z,59.80
2022-10-01T08:44:37.866Z,59.80
2022-10-01T08:45:29.706Z,59.80
2022-10-01T08:46:21.420Z,59.70
2022-10-01T08:47:13.217Z,59.80
2022-10-01T08:48:04.967Z,60.00
2022-10-01T08:48:57.336Z,59.80
2022-10-01T08:49:48.530Z,59.80
2022-10-01T08:50:40.332Z,59.80
2022-10-01T08:51:32.277Z,59.90
2022-10-01T08:52:23.866Z,59.70
2022-10-01T08:53:15.646Z,59.90
2022-10-01T08:54:07.397Z,59.80
2022-10-01T08:54:59.208Z,60.00
2022-10-01T08:55:50.981Z,60.00
2022-10-01T08:56:42.757Z,59.90
2022-10-01T08:57:34.549Z,59.60
2022-10-01T08:58:26.284Z,59.80
2022-10-01T08:59:18.090Z,59.70
2022-10-01T09:00:09.860Z,59.70
2022-10-01T09:01:01.633Z,60.00
2022-10-01T09:01:53.430Z,59.60
2022-10-01T09:02:45.213Z,59.80
2022-10-01T09:03:36.986Z,59.60
2022-10-01T09:04:28.823Z,59.70
2022-10-01T09:05:20.543Z,59.80
2022-10-01T09:06:12.336Z,59.80
2022-10-01T09:07:04.039Z,59.90
2022-10-01T09:07:55.871Z,60.00
2022-10-01T09:08:47.662Z,60.00
2022-10-01T09:09:39.457Z,59.90
2022-10-01T09:10:31.211Z,59.90
2022-10-01T09:11:23.002Z,59.90
2022-10-01T09:12:14.758Z,60.00
2022-10-01T09:13:06.556Z,59.90
2022-10-01T09:13:58.330Z,60.00
2022-10-01T09:14:50.113Z,59.70
2022-10-01T09:15:41.875Z,59.70
2022-10-01T09:16:33.726Z,59.90
2022-10-01T09:17:25.445Z,59.70
2022-10-01T09:18:17.219Z,59.90
2022-10-01T09:19:08.997Z,60.00
2022-10-01T09:20:00.783Z,59.90
2022-10-01T09:20:52.546Z,59.90
2022-10-01T09:21:44.355Z,59.90
2022-10-01T09:22:36.055Z,59.70
2022-10-01T09:23:28.182Z,59.90
2022-10-01T09:24:19.688Z,59.60
2022-10-01T09:25:11.604Z,60.10
2022-10-01T09:26:03.223Z,59.90
2022-10-01T09:26:55.013Z,59.90
2022-10-01T09:27:46.872Z,60.00
2022-10-01T09:28:38.578Z,59.90
2022-10-01T09:29:30.340Z,59.80
2022-10-01T09:30:22.168Z,59.90
2022-10-01T09:31:13.971Z,60.00
2022-10-01T09:32:05.767Z,60.00
2022-10-01T09:32:57.468Z,60.00
2022-10-01T09:33:49.261Z,60.40
2022-10-01T09:34:41.028Z,60.00
2022-10-01T09:35:32.826Z,60.00
2022-10-01T09:36:24.585Z,60.10
2022-10-01T09:37:16.345Z,60.00
2022-10-01T09:38:08.145Z,60.10
2022-10-01T09:38:59.951Z,60.40
2022-10-01T09:39:51.703Z,60.30
2022-10-01T09:40:43.507Z,60.20
2022-10-01T09:41:35.445Z,59.80
2022-10-01T09:42:27.073Z,59.90
2022-10-01T09:43:18.827Z,59.80
2022-10-01T09:44:10.634Z,59.40
2022-10-01T09:45:02.390Z,60.00
2022-10-01T09:45:54.226Z,60.00
2022-10-01T09:46:45.939Z,60.20
2022-10-01T09:47:37.732Z,60.10
2022-10-01T09:48:29.523Z,60.30
2022-10-01T09:49:21.293Z,60.10
2022-10-01T09:50:13.064Z,59.50
2022-10-01T09:51:04.861Z,60.50
2022-10-01T09:51:56.544Z,59.90
2022-10-01T09:52:48.423Z,60.40
2022-10-01T09:53:40.217Z,60.60
2022-10-01T09:54:32.306Z,60.70
2022-10-01T09:55:23.754Z,60.70
2022-10-01T09:56:15.551Z,60.60
2022-10-01T09:57:07.318Z,60.50
2022-10-01T09:57:59.132Z,59.90
2022-10-01T09:58:50.887Z,60.20
2022-10-01T09:59:42.689Z,60.60
2022-10-01T10:00:34.472Z,60.40
2022-10-01T10:01:26.157Z,60.60
2022-10-01T10:02:18.117Z,60.70
2022-10-01T10:03:09.924Z,60.50
2022-10-01T10:04:01.515Z,60.00
2022-10-01T10:04:53.381Z,60.30
2022-10-01T10:05:45.164Z,60.30
2022-10-01T10:06:37.604Z,60.60
2022-10-01T10:07:30.359Z,60.30
2022-10-01T10:08:20.521Z,60.80
2022-10-01T10:09:12.270Z,61.10
2022-10-01T10:10:04.026Z,61.20
2022-10-01T10:10:55.841Z,61.10
2022-10-01T10:11:47.649Z,60.70
2022-10-01T10:12:39.409Z,60.50
2022-10-01T10:13:31.222Z,60.70
2022-10-01T10:14:22.986Z,60.80
2022-10-01T10:15:14.774Z,60.70
2022-10-01T10:16:06.515Z,60.50
2022-10-01T10:16:58.361Z,60.50
2022-10-01T10:17:50.139Z,60.40
2022-10-01T10:18:41.926Z,60.60
2022-10-01T10:19:33.704Z,60.60
2022-10-01T10:20:25.487Z,60.60
2022-10-01T10:21:17.282Z,60.60
2022-10-01T10:22:09.081Z,60.40
2022-10-01T10:23:00.871Z,60.40
2022-10-01T10:23:52.644Z,60.30
2022-10-01T10:24:44.425Z,60.30
2022-10-01T10:25:36.155Z,60.30
2022-10-01T10:26:27.996Z,60.30
2022-10-01T10:27:19.803Z,60.30
2022-10-01T10:28:11.650Z,60.30
2022-10-01T10:29:03.388Z,60.30
2022-10-01T10:29:55.167Z,60.10
2022-10-01T10:30:46.942Z,60.40
2022-10-01T10:31:38.810Z,60.30
2022-10-01T10:32:30.524Z,60.30
2022-10-01T10:33:22.315Z,60.30
2022-10-01T10:34:14.120Z,60.10
2022-10-01T10:35:05.895Z,60.30
2022-10-01T10:35:57.680Z,60.30
2022-10-01T10:36:49.469Z,60.20
2022-10-01T10:37:41.266Z,60.20
2022-10-01T10:38:33.053Z,60.10
2022-10-01T10:39:24.858Z,60.20
2022-10-01T10:40:16.517Z,60.30
2022-10-01T10:41:08.420Z,60.10
2022-10-01T10:42:00.199Z,60.00
2022-10-01T10:42:51.988Z,60.20
2022-10-01T10:43:43.755Z,60.20
2022-10-01T10:44:35.490Z,60.30
2022-10-01T10:45:27.358Z,60.30
2022-10-01T10:46:19.233Z,60.20
2022-10-01T10:47:10.927Z,60.10
2022-10-01T10:48:02.712Z,60.10
2022-10-01T10:48:54.495Z,60.10
2022-10-01T10:49:46.226Z,60.10
2022-10-01T10:50:38.085Z,60.00
2022-10-01T10:51:29.876Z,59.80
2022-10-01T10:52:21.648Z,59.90
2022-10-01T10:53:13.474Z,59.70
2022-10-01T10:54:05.230Z,59.90
2022-10-01T10:54:57.056Z,60.00
2022-10-01T10:55:48.812Z,60.00
2022-10-01T10:56:40.687Z,59.80
2022-10-01T10:57:32.388Z,59.80
2022-10-01T10:58:24.196Z,59.70
2022-10-01T10:59:15.967Z,59.60
2022-10-01T11:00:07.797Z,59.70
2022-10-01T11:00:59.592Z,59.70
2022-10-01T11:01:51.499Z,59.80
2022-10-01T11:02:43.187Z,59.70
2022-10-01T11:03:34.954Z,59.70
2022-10-01T11:04:26.671Z,59.70
2022-10-01T11:05:18.527Z,59.70
2022-10-01T11:06:10.312Z,59.80
2022-10-01T11:07:02.106Z,59.60